Time;durP1;ratioP1;P1;durP2;ratioP2;P2;SDS_P1;SDS_P2;PMS_P1;PMS_P2;Temp;Humidity;BMP_temperature;BMP_pressure;BME280_temperature;BME280_humidity;BME280_pressure;Samples;Min_cycle;Max_cycle;Signal;HPM_P1;HPM_P2
2022/08/14 00:01:59;;;;;;;;;;;18.90;99.90;;;;;;4233629;28;19946;-63
2022/08/14 00:04:00;;;;;;;;;;;18.90;99.90;;;;;;4234055;28;19911;-63
2022/08/14 00:06:02;;;;;;;;;;;18.80;99.90;;;;;;4233241;28;19908;-63
2022/08/14 00:08:03;;;;;;;;;;;18.80;99.90;;;;;;4233743;27;19964;-63
2022/08/14 00:10:05;;;;;;;;;;;18.70;99.90;;;;;;4233201;28;19922;-63
2022/08/14 00:12:06;;;;;;;;;;;18.70;99.90;;;;;;4234490;28;19912;-63
2022/08/14 00:14:08;;;;;;;;;;;18.70;99.90;;;;;;4233679;28;19956;-63
2022/08/14 00:16:13;;;;;;;;;;;18.60;99.90;;;;;;4234321;28;19904;-62
2022/08/14 00:18:16;;;;;;;;;;;18.60;99.90;;;;;;4233235;28;20308;-64
2022/08/14 00:20:19;;;;;;;;;;;18.60;99.90;;;;;;4234290;28;19960;-65
2022/08/14 00:22:21;;;;;;;;;;;18.50;99.90;;;;;;4232670;27;19919;-64
2022/08/14 00:24:22;;;;;;;;;;;18.40;99.90;;;;;;4233871;27;19960;-65
2022/08/14 00:26:23;;;;;;;;;;;18.30;99.90;;;;;;4232966;28;20020;-67
2022/08/14 00:28:27;;;;;;;;;;;18.30;99.90;;;;;;4234060;27;19916;-63
2022/08/14 00:30:29;;;;;;;;;;;18.30;99.90;;;;;;4233167;28;20555;-67
2022/08/14 00:32:29;;;;;;;;;;;18.30;99.90;;;;;;4233907;27;19916;-65
2022/08/14 00:34:30;;;;;;;;;;;18.30;99.90;;;;;;4233594;28;19903;-64
2022/08/14 00:36:31;;;;;;;;;;;18.30;99.90;;;;;;4233387;28;19904;-66
2022/08/14 00:38:33;;;;;;;;;;;18.30;99.90;;;;;;4233757;28;19960;-63
2022/08/14 00:40:33;;;;;;;;;;;18.30;99.90;;;;;;4232733;27;19911;-65
2022/08/14 00:42:34;;;;;;;;;;;18.30;99.90;;;;;;4234021;28;19911;-62
2022/08/14 00:44:35;;;;;;;;;;;18.30;99.90;;;;;;4233417;28;19911;-65
2022/08/14 00:46:37;;;;;;;;;;;18.30;99.90;;;;;;4234083;28;19904;-63
2022/08/14 00:48:38;;;;;;;;;;;18.30;99.90;;;;;;4232987;28;19972;-63
2022/08/14 00:50:39;;;;;;;;;;;18.40;99.90;;;;;;4231938;28;20004;-63
2022/08/14 00:52:40;;;;;;;;;;;18.40;99.90;;;;;;4232849;28;19904;-64
2022/08/14 00:54:42;;;;;;;;;;;18.40;99.90;;;;;;4234270;28;20286;-63
2022/08/14 00:56:43;;;;;;;;;;;18.40;99.90;;;;;;4232611;27;19969;-63
2022/08/14 00:58:45;;;;;;;;;;;18.40;99.90;;;;;;4233272;27;19903;-64
2022/08/14 01:00:47;;;;;;;;;;;18.40;99.90;;;;;;4232586;27;19900;-63
2022/08/14 01:02:52;;;;;;;;;;;18.40;99.90;;;;;;4233094;28;19957;-62
2022/08/14 01:04:56;;;;;;;;;;;18.30;99.90;;;;;;4229975;28;20327;-64
2022/08/14 01:06:57;;;;;;;;;;;18.20;99.90;;;;;;4230498;28;19953;-64
2022/08/14 01:08:59;;;;;;;;;;;18.00;99.90;;;;;;4230639;28;20401;-63
2022/08/14 01:11:01;;;;;;;;;;;17.80;99.90;;;;;;4230473;28;19945;-64
2022/08/14 01:13:01;;;;;;;;;;;17.70;99.90;;;;;;4231042;28;19961;-64
2022/08/14 01:15:04;;;;;;;;;;;17.60;99.90;;;;;;4230541;28;20314;-67
2022/08/14 01:17:05;;;;;;;;;;;17.50;99.90;;;;;;4231247;28;20312;-65
2022/08/14 01:21:32;;;;;;;;;;;17.40;99.90;;;;;;4230931;28;19952;-64
2022/08/14 01:23:35;;;;;;;;;;;17.30;99.90;;;;;;4229803;28;19911;-63
2022/08/14 01:25:37;;;;;;;;;;;17.30;99.90;;;;;;4230611;28;19912;-63
2022/08/14 01:27:42;;;;;;;;;;;17.30;99.90;;;;;;4229849;28;19949;-64
2022/08/14 01:29:44;;;;;;;;;;;17.30;99.90;;;;;;4230505;28;19968;-65
2022/08/14 01:31:45;;;;;;;;;;;17.30;99.90;;;;;;4229472;28;19927;-67
2022/08/14 01:33:49;;;;;;;;;;;17.40;99.90;;;;;;4230852;28;19908;-68
2022/08/14 01:35:50;;;;;;;;;;;17.40;99.90;;;;;;4229572;28;19908;-63
2022/08/14 01:37:52;;;;;;;;;;;17.30;99.90;;;;;;4230824;28;20348;-64
2022/08/14 01:39:53;;;;;;;;;;;17.40;99.90;;;;;;4229712;28;20031;-62
2022/08/14 01:41:55;;;;;;;;;;;17.30;99.90;;;;;;4230232;28;19903;-67
2022/08/14 01:44:00;;;;;;;;;;;17.30;99.90;;;;;;4230193;28;19933;-63
2022/08/14 01:46:01;;;;;;;;;;;17.30;99.90;;;;;;4230356;28;20384;-69
2022/08/14 01:48:03;;;;;;;;;;;17.30;99.90;;;;;;4229793;28;19955;-66
2022/08/14 01:50:07;;;;;;;;;;;17.20;99.90;;;;;;4229919;28;19908;-63
2022/08/14 01:52:09;;;;;;;;;;;17.10;99.90;;;;;;4229815;28;19908;-64
2022/08/14 01:54:11;;;;;;;;;;;17.10;99.90;;;;;;4229192;28;20487;-66
2022/08/14 01:56:17;;;;;;;;;;;17.10;99.90;;;;;;4230263;28;19961;-63
2022/08/14 01:58:18;;;;;;;;;;;17.20;99.90;;;;;;4229440;28;19921;-63
2022/08/14 02:00:19;;;;;;;;;;;17.20;99.90;;;;;;4230535;28;19907;-67
2022/08/14 02:02:20;;;;;;;;;;;17.20;99.90;;;;;;4228663;28;20671;-64
2022/08/14 02:04:22;;;;;;;;;;;17.30;99.90;;;;;;4230425;28;20351;-63
2022/08/14 02:06:25;;;;;;;;;;;17.30;99.90;;;;;;4229086;28;19973;-62
2022/08/14 02:08:29;;;;;;;;;;;17.30;99.90;;;;;;4230358;28;20413;-62
2022/08/14 02:10:34;;;;;;;;;;;17.30;99.90;;;;;;4229216;28;19903;-62
2022/08/14 02:12:35;;;;;;;;;;;17.30;99.90;;;;;;4230450;28;19968;-62
2022/08/14 02:14:36;;;;;;;;;;;17.30;99.90;;;;;;4228784;28;20279;-63
2022/08/14 02:16:39;;;;;;;;;;;17.30;99.90;;;;;;4229374;28;19914;-63
2022/08/14 02:18:40;;;;;;;;;;;17.30;99.90;;;;;;4228993;28;19907;-63
2022/08/14 02:20:41;;;;;;;;;;;17.30;99.90;;;;;;4229921;28;19952;-64
2022/08/14 02:22:42;;;;;;;;;;;17.30;99.90;;;;;;4210614;28;19965;-64
2022/08/14 02:24:43;;;;;;;;;;;17.30;99.90;;;;;;4228780;28;19933;-63
2022/08/14 02:26:46;;;;;;;;;;;17.30;99.90;;;;;;4229579;28;20405;-64
2022/08/14 02:28:49;;;;;;;;;;;17.20;99.90;;;;;;4229012;28;19965;-63
2022/08/14 02:30:50;;;;;;;;;;;17.20;99.90;;;;;;4228261;28;19904;-63
2022/08/14 02:32:51;;;;;;;;;;;17.20;99.90;;;;;;4228706;27;19908;-63
2022/08/14 02:34:52;;;;;;;;;;;17.20;99.90;;;;;;4229309;28;19908;-63
2022/08/14 02:36:58;;;;;;;;;;;17.20;99.90;;;;;;4228473;28;19953;-63
2022/08/14 02:38:59;;;;;;;;;;;17.20;99.90;;;;;;4230019;28;19908;-63
2022/08/14 02:41:00;;;;;;;;;;;17.20;99.90;;;;;;4228645;28;20007;-63
2022/08/14 02:43:01;;;;;;;;;;;17.10;99.90;;;;;;4229865;28;19945;-65
2022/08/14 02:45:02;;;;;;;;;;;17.10;99.90;;;;;;4228949;28;19969;-62
2022/08/14 02:47:03;;;;;;;;;;;17.10;99.90;;;;;;4229717;28;19903;-63
2022/08/14 02:49:05;;;;;;;;;;;17.00;99.90;;;;;;4228558;28;19912;-64
2022/08/14 02:51:09;;;;;;;;;;;17.00;99.90;;;;;;4229403;28;19907;-65
2022/08/14 02:53:10;;;;;;;;;;;16.90;99.90;;;;;;4228411;28;19908;-64
2022/08/14 02:55:11;;;;;;;;;;;16.90;99.90;;;;;;4229253;28;19949;-64
2022/08/14 02:57:12;;;;;;;;;;;16.90;99.90;;;;;;4228909;28;19907;-63
2022/08/14 02:59:14;;;;;;;;;;;16.90;99.90;;;;;;4227909;28;19972;-63
2022/08/14 03:01:16;;;;;;;;;;;16.90;99.90;;;;;;4229065;28;19900;-64
2022/08/14 03:03:19;;;;;;;;;;;16.80;99.90;;;;;;4228287;28;19904;-64
2022/08/14 03:05:19;;;;;;;;;;;16.80;99.90;;;;;;4229451;28;19911;-63
2022/08/14 03:07:20;;;;;;;;;;;16.70;99.90;;;;;;4228145;28;19903;-63
2022/08/14 03:09:22;;;;;;;;;;;16.60;99.90;;;;;;4229134;28;19911;-63
2022/08/14 03:11:23;;;;;;;;;;;16.50;99.90;;;;;;4228241;28;19949;-64
2022/08/14 03:13:24;;;;;;;;;;;16.50;99.90;;;;;;4229430;28;19911;-63
2022/08/14 03:15:25;;;;;;;;;;;16.50;99.90;;;;;;4228096;28;19950;-62
2022/08/14 03:17:26;;;;;;;;;;;16.50;99.90;;;;;;4228970;28;20016;-63
2022/08/14 03:19:27;;;;;;;;;;;16.40;99.90;;;;;;4228056;28;19954;-63
2022/08/14 03:21:31;;;;;;;;;;;16.40;99.90;;;;;;4228935;28;20177;-64
2022/08/14 03:23:33;;;;;;;;;;;16.30;99.90;;;;;;4228023;28;19985;-63
2022/08/14 03:25:34;;;;;;;;;;;16.30;99.90;;;;;;4228928;28;19907;-62
2022/08/14 03:27:35;;;;;;;;;;;16.30;99.90;;;;;;4226688;28;19908;-62
2022/08/14 03:29:38;;;;;;;;;;;16.30;99.90;;;;;;4228382;28;20268;-62
2022/08/14 03:31:40;;;;;;;;;;;16.30;99.90;;;;;;4228595;28;20656;-64
2022/08/14 03:33:42;;;;;;;;;;;16.30;99.90;;;;;;4228194;28;20375;-62
2022/08/14 03:35:43;;;;;;;;;;;16.40;99.90;;;;;;4228799;28;19956;-63
2022/08/14 03:37:43;;;;;;;;;;;16.40;99.90;;;;;;4227710;28;20279;-62
2022/08/14 03:39:44;;;;;;;;;;;16.40;99.90;;;;;;4228936;28;20337;-67
2022/08/14 03:41:46;;;;;;;;;;;16.40;99.90;;;;;;4227871;28;19961;-62
2022/08/14 03:43:49;;;;;;;;;;;16.40;99.90;;;;;;4226868;28;20050;-66
2022/08/14 03:45:50;;;;;;;;;;;16.30;99.90;;;;;;4227798;28;19903;-65
2022/08/14 03:47:51;;;;;;;;;;;16.50;99.90;;;;;;4228391;28;19911;-63
2022/08/14 03:49:52;;;;;;;;;;;16.70;99.90;;;;;;4227611;28;19919;-62
2022/08/14 03:51:53;;;;;;;;;;;17.00;99.90;;;;;;4227018;28;20010;-62
2022/08/14 03:53:58;;;;;;;;;;;17.20;99.90;;;;;;4227740;28;19966;-62
2022/08/14 03:55:59;;;;;;;;;;;17.50;99.90;;;;;;4228659;28;20421;-63
2022/08/14 03:58:00;;;;;;;;;;;17.80;99.90;;;;;;4227911;28;19955;-63
2022/08/14 04:00:07;;;;;;;;;;;18.20;99.90;;;;;;4228368;28;19910;-62
2022/08/14 04:02:08;;;;;;;;;;;18.60;99.90;;;;;;4227640;28;19904;-64
2022/08/14 04:04:09;;;;;;;;;;;19.10;99.90;;;;;;4227400;28;19904;-62
2022/08/14 04:06:10;;;;;;;;;;;19.40;99.90;;;;;;4228132;28;19908;-63
2022/08/14 04:08:11;;;;;;;;;;;19.60;99.90;;;;;;4227719;28;19915;-63
2022/08/14 04:10:12;;;;;;;;;;;19.80;99.90;;;;;;4227883;28;19916;-64
2022/08/14 04:12:13;;;;;;;;;;;20.00;99.90;;;;;;4227480;28;20301;-63
2022/08/14 04:14:14;;;;;;;;;;;20.10;99.90;;;;;;4229108;28;19953;-62
2022/08/14 04:16:19;;;;;;;;;;;20.20;99.90;;;;;;4225856;28;19908;-64
2022/08/14 04:18:20;;;;;;;;;;;20.40;99.90;;;;;;4228792;28;19912;-62
2022/08/14 04:20:21;;;;;;;;;;;20.80;99.90;;;;;;4227588;28;19953;-63
2022/08/14 04:22:22;;;;;;;;;;;21.00;99.90;;;;;;4228409;28;20347;-64
2022/08/14 04:24:23;;;;;;;;;;;21.00;99.90;;;;;;4226644;28;19904;-63
2022/08/14 04:26:28;;;;;;;;;;;20.90;99.90;;;;;;4227011;28;19973;-62
2022/08/14 04:28:30;;;;;;;;;;;20.80;99.90;;;;;;4227028;28;20351;-62
2022/08/14 04:30:38;;;;;;;;;;;21.00;99.90;;;;;;4228438;28;19916;-62
2022/08/14 04:32:39;;;;;;;;;;;21.30;99.90;;;;;;4227437;28;19957;-62
2022/08/14 04:34:40;;;;;;;;;;;21.60;99.90;;;;;;4228090;28;19969;-62
2022/08/14 04:43:47;;;;;;;;;;;21.70;99.90;;;;;;4231732;28;19956;-62
2022/08/14 04:45:48;;;;;;;;;;;21.80;99.90;;;;;;4230808;28;20364;-63
2022/08/14 04:50:09;;;;;;;;;;;21.40;99.90;;;;;;4230314;28;19965;-63
2022/08/14 04:52:11;;;;;;;;;;;21.60;99.90;;;;;;4230985;28;19908;-63
2022/08/14 04:54:11;;;;;;;;;;;21.80;99.90;;;;;;4229847;27;20336;-63
2022/08/14 04:56:14;;;;;;;;;;;21.90;99.90;;;;;;4230940;28;19904;-62
2022/08/14 04:58:16;;;;;;;;;;;22.10;99.90;;;;;;4230624;28;20313;-63
2022/08/14 05:00:17;;;;;;;;;;;22.20;99.90;;;;;;4229075;28;19921;-64
2022/08/14 05:02:20;;;;;;;;;;;22.50;99.90;;;;;;4231006;28;19903;-64
2022/08/14 05:04:21;;;;;;;;;;;22.50;99.90;;;;;;4230140;28;20379;-64
2022/08/14 05:06:22;;;;;;;;;;;22.50;99.90;;;;;;4230274;28;19908;-64
2022/08/14 05:08:23;;;;;;;;;;;22.50;99.90;;;;;;4230052;28;19914;-62
2022/08/14 05:10:24;;;;;;;;;;;22.60;99.90;;;;;;4231145;28;19915;-62
2022/08/14 05:12:26;;;;;;;;;;;22.70;99.90;;;;;;4229964;28;19911;-63
2022/08/14 05:14:27;;;;;;;;;;;22.90;99.90;;;;;;4230981;28;19904;-63
2022/08/14 05:16:30;;;;;;;;;;;23.20;99.90;;;;;;4229566;28;19951;-63
2022/08/14 05:18:32;;;;;;;;;;;23.60;99.90;;;;;;4231303;28;19911;-63
2022/08/14 05:20:34;;;;;;;;;;;24.00;99.90;;;;;;4230047;28;20356;-63
2022/08/14 05:22:34;;;;;;;;;;;24.60;99.90;;;;;;4230695;28;19916;-63
2022/08/14 05:24:35;;;;;;;;;;;24.90;99.90;;;;;;4229110;28;20046;-62
2022/08/14 05:26:40;;;;;;;;;;;25.30;99.90;;;;;;4230551;28;20344;-63
2022/08/14 05:28:43;;;;;;;;;;;25.60;99.90;;;;;;4230036;28;20387;-63
2022/08/14 05:30:45;;;;;;;;;;;25.90;99.90;;;;;;4229909;28;20260;-62
2022/08/14 05:32:47;;;;;;;;;;;26.40;99.90;;;;;;4230213;28;19907;-64
2022/08/14 05:34:48;;;;;;;;;;;26.80;99.30;;;;;;4229227;28;19908;-63
2022/08/14 05:36:53;;;;;;;;;;;27.50;98.50;;;;;;4230264;28;20408;-63
2022/08/14 05:38:54;;;;;;;;;;;27.90;97.30;;;;;;4229219;28;20364;-63
2022/08/14 05:40:58;;;;;;;;;;;28.00;96.50;;;;;;4230490;28;19954;-62
2022/08/14 05:42:59;;;;;;;;;;;27.80;96.50;;;;;;4229350;28;20363;-63
2022/08/14 05:45:01;;;;;;;;;;;28.10;96.40;;;;;;4230531;27;20344;-65
2022/08/14 05:47:03;;;;;;;;;;;28.60;95.90;;;;;;4229309;28;19933;-63
2022/08/14 05:49:04;;;;;;;;;;;29.10;95.10;;;;;;4230198;28;19956;-63
2022/08/14 05:51:05;;;;;;;;;;;29.50;94.00;;;;;;4229027;28;20313;-63
2022/08/14 05:53:07;;;;;;;;;;;29.80;93.80;;;;;;4230224;28;19956;-62
2022/08/14 05:55:09;;;;;;;;;;;29.90;93.00;;;;;;4228300;28;19904;-64
2022/08/14 05:57:10;;;;;;;;;;;30.10;92.50;;;;;;4230371;28;19908;-66
2022/08/14 05:59:11;;;;;;;;;;;30.40;91.90;;;;;;4229416;28;19907;-62
2022/08/14 06:01:12;;;;;;;;;;;30.30;91.30;;;;;;4229862;28;19903;-65
2022/08/14 06:03:15;;;;;;;;;;;30.00;91.50;;;;;;4229307;28;20676;-63
2022/08/14 06:05:16;;;;;;;;;;;30.20;91.30;;;;;;4229555;28;19911;-62
2022/08/14 06:07:17;;;;;;;;;;;30.60;91.10;;;;;;4229145;28;20260;-65
2022/08/14 06:09:19;;;;;;;;;;;30.70;90.60;;;;;;4228694;28;19922;-63
2022/08/14 06:11:20;;;;;;;;;;;31.00;90.10;;;;;;4229952;28;19952;-65
2022/08/14 06:13:21;;;;;;;;;;;31.10;89.60;;;;;;4229237;28;19907;-63
2022/08/14 06:15:22;;;;;;;;;;;31.40;88.80;;;;;;4229992;28;19949;-64
2022/08/14 06:17:23;;;;;;;;;;;31.60;88.60;;;;;;4228893;28;20362;-64
2022/08/14 06:19:24;;;;;;;;;;;31.60;87.30;;;;;;4229991;28;19904;-63
2022/08/14 06:21:25;;;;;;;;;;;31.80;87.40;;;;;;4228250;28;19904;-64
2022/08/14 06:23:26;;;;;;;;;;;32.00;88.40;;;;;;4229742;28;19908;-63
2022/08/14 06:25:27;;;;;;;;;;;32.10;86.00;;;;;;4228272;28;19903;-65
2022/08/14 06:27:33;;;;;;;;;;;32.20;85.30;;;;;;4227436;28;19907;-62
2022/08/14 06:29:35;;;;;;;;;;;32.00;85.50;;;;;;4227984;27;19916;-63
2022/08/14 06:31:36;;;;;;;;;;;32.10;86.70;;;;;;4228596;28;19908;-67
2022/08/14 06:33:37;;;;;;;;;;;32.10;87.10;;;;;;4228866;28;20006;-64
2022/08/14 06:35:39;;;;;;;;;;;32.10;85.00;;;;;;4228558;28;20010;-63
2022/08/14 06:37:48;;;;;;;;;;;32.10;84.40;;;;;;4225759;28;19912;-64
2022/08/14 06:39:49;;;;;;;;;;;31.70;85.00;;;;;;4211936;28;19908;-65
2022/08/14 06:41:49;;;;;;;;;;;31.50;85.70;;;;;;4210617;28;19910;-64
2022/08/14 06:43:50;;;;;;;;;;;31.50;85.50;;;;;;4211503;28;19908;-63
2022/08/14 06:45:51;;;;;;;;;;;31.70;84.60;;;;;;4213012;28;19904;-63
2022/08/14 06:47:53;;;;;;;;;;;31.90;84.70;;;;;;4210879;28;21753;-63
2022/08/14 06:49:54;;;;;;;;;;;31.70;84.10;;;;;;4212138;28;19916;-65
2022/08/14 06:51:55;;;;;;;;;;;31.90;83.80;;;;;;4210344;28;19907;-64
2022/08/14 06:53:56;;;;;;;;;;;31.80;83.90;;;;;;4211991;28;20003;-62
2022/08/14 06:55:57;;;;;;;;;;;31.90;84.40;;;;;;4227087;28;19904;-63
2022/08/14 06:57:58;;;;;;;;;;;31.70;85.10;;;;;;4229243;28;19952;-66
2022/08/14 06:59:58;;;;;;;;;;;31.60;85.10;;;;;;4228403;28;19948;-64
2022/08/14 07:06:39;;;;;;;;;;;31.30;84.40;;;;;;4228986;28;19933;-63
2022/08/14 07:08:42;;;;;;;;;;;30.90;86.20;;;;;;4227861;28;19915;-65
2022/08/14 07:10:44;;;;;;;;;;;30.50;85.90;;;;;;4229004;28;19916;-65
2022/08/14 07:12:45;;;;;;;;;;;30.00;86.50;;;;;;4228006;28;20282;-63
2022/08/14 07:14:46;;;;;;;;;;;29.10;88.10;;;;;;4228592;28;20002;-63
2022/08/14 07:16:46;;;;;;;;;;;28.40;89.50;;;;;;4227989;28;19904;-63
2022/08/14 07:18:47;;;;;;;;;;;28.10;90.30;;;;;;4227897;28;20327;-62
2022/08/14 07:20:49;;;;;;;;;;;28.00;90.60;;;;;;4227861;28;19903;-61
2022/08/14 07:22:50;;;;;;;;;;;28.30;90.70;;;;;;4227170;28;20399;-66
2022/08/14 07:24:51;;;;;;;;;;;28.60;90.60;;;;;;4228443;28;19907;-60
2022/08/14 07:26:52;;;;;;;;;;;29.00;90.30;;;;;;4225907;28;20319;-60
2022/08/14 07:28:53;;;;;;;;;;;29.50;90.00;;;;;;4228304;28;19907;-63
2022/08/14 07:30:56;;;;;;;;;;;29.80;89.10;;;;;;4227475;28;19911;-64
2022/08/14 07:32:57;;;;;;;;;;;29.80;88.60;;;;;;4228633;28;19908;-63
2022/08/14 07:34:58;;;;;;;;;;;30.10;88.30;;;;;;4227473;28;19904;-64
2022/08/14 07:36:59;;;;;;;;;;;29.50;87.90;;;;;;4228680;28;21355;-64
2022/08/14 07:39:01;;;;;;;;;;;28.90;88.80;;;;;;4227979;28;19916;-63
2022/08/14 07:41:04;;;;;;;;;;;28.40;89.10;;;;;;4228157;28;19953;-70
2022/08/14 07:43:05;;;;;;;;;;;28.30;89.80;;;;;;4227555;28;19908;-63
2022/08/14 07:45:06;;;;;;;;;;;28.50;89.70;;;;;;4228075;28;19908;-63
2022/08/14 07:47:07;;;;;;;;;;;28.60;89.30;;;;;;4227543;28;19949;-64
2022/08/14 07:49:08;;;;;;;;;;;28.80;89.40;;;;;;4227881;28;19908;-65
2022/08/14 07:51:09;;;;;;;;;;;28.80;89.40;;;;;;4227327;28;19982;-63
2022/08/14 07:53:12;;;;;;;;;;;29.00;90.00;;;;;;4227326;28;20340;-63
2022/08/14 07:55:14;;;;;;;;;;;29.00;89.50;;;;;;4227624;28;19953;-63
2022/08/14 07:57:16;;;;;;;;;;;28.80;89.80;;;;;;4227445;28;19996;-62
2022/08/14 07:59:20;;;;;;;;;;;28.60;89.90;;;;;;4228335;28;19972;-64
2022/08/14 08:01:21;;;;;;;;;;;28.80;89.70;;;;;;4227336;28;20260;-64
2022/08/14 08:03:24;;;;;;;;;;;29.10;90.00;;;;;;4228278;28;19911;-64
2022/08/14 08:05:25;;;;;;;;;;;29.30;89.30;;;;;;4225042;28;19904;-62
2022/08/14 08:07:29;;;;;;;;;;;29.50;90.10;;;;;;4227338;28;19903;-62
2022/08/14 08:09:31;;;;;;;;;;;29.40;88.80;;;;;;4226752;28;19908;-64
2022/08/14 08:11:34;;;;;;;;;;;29.50;89.60;;;;;;4227963;28;19957;-62
2022/08/14 08:13:36;;;;;;;;;;;29.60;89.10;;;;;;4229384;28;19968;-62
2022/08/14 08:15:38;;;;;;;;;;;29.20;88.70;;;;;;4231751;28;20435;-61
2022/08/14 08:17:39;;;;;;;;;;;28.90;89.50;;;;;;4228571;28;19903;-63
2022/08/14 08:19:40;;;;;;;;;;;28.60;90.10;;;;;;4230950;28;20003;-61
2022/08/14 08:21:41;;;;;;;;;;;28.60;90.20;;;;;;4230429;28;19943;-61
2022/08/14 08:23:42;;;;;;;;;;;28.60;90.10;;;;;;4230669;28;19908;-62
2022/08/14 08:25:44;;;;;;;;;;;28.20;90.50;;;;;;4230839;28;19950;-62
2022/08/14 08:27:58;;;;;;;;;;;28.00;90.80;;;;;;4229644;27;20020;-62
2022/08/14 08:30:07;;;;;;;;;;;27.90;90.70;;;;;;4230663;28;20338;-61
2022/08/14 08:32:08;;;;;;;;;;;27.90;90.70;;;;;;4230516;28;19965;-62
2022/08/14 08:34:09;;;;;;;;;;;27.90;90.70;;;;;;4230463;28;20248;-62
2022/08/14 08:36:10;;;;;;;;;;;28.00;90.50;;;;;;4229923;28;19911;-61
2022/08/14 08:38:13;;;;;;;;;;;27.80;90.40;;;;;;4231193;28;19908;-62
2022/08/14 08:40:28;;;;;;;;;;;28.00;90.80;;;;;;4230308;28;19953;-62
2022/08/14 08:42:29;;;;;;;;;;;27.50;91.00;;;;;;4231079;28;19907;-62
2022/08/14 08:44:31;;;;;;;;;;;27.40;91.20;;;;;;4229372;28;19916;-62
2022/08/14 08:46:32;;;;;;;;;;;27.50;91.30;;;;;;4229323;28;19945;-62
2022/08/14 08:48:44;;;;;;;;;;;27.60;91.30;;;;;;4229946;28;20399;-63
2022/08/14 08:50:45;;;;;;;;;;;27.40;91.40;;;;;;4230627;28;19911;-62
2022/08/14 08:52:49;;;;;;;;;;;27.20;91.70;;;;;;4229502;28;19914;-61
2022/08/14 08:54:53;;;;;;;;;;;27.20;91.80;;;;;;4230833;28;20347;-62
2022/08/14 08:56:54;;;;;;;;;;;27.20;91.70;;;;;;4229864;28;19912;-61
2022/08/14 08:58:55;;;;;;;;;;;27.30;91.40;;;;;;4230764;28;19952;-62
2022/08/14 09:00:57;;;;;;;;;;;27.40;91.40;;;;;;4229721;28;20230;-62
2022/08/14 09:03:06;;;;;;;;;;;27.40;91.50;;;;;;4230302;28;19908;-64
2022/08/14 09:05:07;;;;;;;;;;;27.50;91.70;;;;;;4229788;28;19899;-63
2022/08/14 09:07:09;;;;;;;;;;;28.00;91.60;;;;;;4230391;28;19932;-61
2022/08/14 09:09:19;;;;;;;;;;;28.20;91.00;;;;;;4230366;28;19899;-62
2022/08/14 09:11:23;;;;;;;;;;;28.10;91.00;;;;;;4229931;28;19972;-62
2022/08/14 09:13:27;;;;;;;;;;;28.00;91.00;;;;;;4229800;28;19911;-62
2022/08/14 09:15:28;;;;;;;;;;;28.10;91.20;;;;;;4229489;28;19976;-65
2022/08/14 09:17:29;;;;;;;;;;;28.40;91.10;;;;;;4230355;28;20352;-63
2022/08/14 09:19:30;;;;;;;;;;;28.70;90.60;;;;;;4229554;28;19961;-64
2022/08/14 09:21:32;;;;;;;;;;;28.60;90.40;;;;;;4230230;28;19926;-62
2022/08/14 09:23:33;;;;;;;;;;;28.10;90.70;;;;;;4229110;28;19904;-63
2022/08/14 09:25:34;;;;;;;;;;;27.90;91.10;;;;;;4229838;28;19912;-62
2022/08/14 09:27:36;;;;;;;;;;;27.90;91.50;;;;;;4229454;28;19930;-62
2022/08/14 09:29:37;;;;;;;;;;;27.80;91.30;;;;;;4230358;28;20347;-63
2022/08/14 09:31:41;;;;;;;;;;;27.80;91.70;;;;;;4229258;28;19962;-61
2022/08/14 09:33:42;;;;;;;;;;;27.80;91.80;;;;;;4230294;28;19907;-61
2022/08/14 09:35:52;;;;;;;;;;;27.80;91.70;;;;;;4229225;28;19911;-62
2022/08/14 09:37:58;;;;;;;;;;;28.00;91.70;;;;;;4229690;28;19966;-62
2022/08/14 09:40:04;;;;;;;;;;;28.30;91.80;;;;;;4229561;28;19907;-61
2022/08/14 09:42:11;;;;;;;;;;;28.40;91.30;;;;;;4230295;28;19908;-61
2022/08/14 09:44:14;;;;;;;;;;;28.40;90.90;;;;;;4228933;28;19912;-62
2022/08/14 09:46:15;;;;;;;;;;;28.10;91.30;;;;;;4229863;28;19952;-62
2022/08/14 09:48:17;;;;;;;;;;;28.00;91.50;;;;;;4228381;27;19969;-61
2022/08/14 09:50:23;;;;;;;;;;;28.00;91.80;;;;;;4229490;28;19912;-61
2022/08/14 09:52:25;;;;;;;;;;;28.00;91.80;;;;;;4229088;28;19965;-62
2022/08/14 09:54:34;;;;;;;;;;;28.10;91.80;;;;;;4229289;28;19968;-63
2022/08/14 09:56:49;;;;;;;;;;;28.40;92.00;;;;;;4229361;28;20389;-62
2022/08/14 09:58:50;;;;;;;;;;;28.50;91.50;;;;;;4229295;28;20351;-63
2022/08/14 10:01:00;;;;;;;;;;;28.40;91.40;;;;;;4229492;28;19957;-62
2022/08/14 10:03:01;;;;;;;;;;;28.40;91.40;;;;;;4228975;28;19948;-62
2022/08/14 10:05:02;;;;;;;;;;;28.30;91.10;;;;;;4229200;28;19972;-62
2022/08/14 10:07:04;;;;;;;;;;;28.20;91.20;;;;;;4226888;28;20002;-63
2022/08/14 10:09:05;;;;;;;;;;;28.20;91.10;;;;;;4230450;28;19961;-62
2022/08/14 10:11:18;;;;;;;;;;;28.10;90.80;;;;;;4228616;28;20074;-62
2022/08/14 10:13:20;;;;;;;;;;;28.00;90.80;;;;;;4229592;28;20416;-63
2022/08/14 10:15:23;;;;;;;;;;;28.10;91.00;;;;;;4228104;28;19908;-62
2022/08/14 10:17:25;;;;;;;;;;;28.00;90.20;;;;;;4230084;27;19904;-63
2022/08/14 10:19:29;;;;;;;;;;;28.00;90.60;;;;;;4226874;28;19911;-62
2022/08/14 10:21:30;;;;;;;;;;;28.10;90.20;;;;;;4229308;28;19986;-62
2022/08/14 10:23:39;;;;;;;;;;;28.00;90.30;;;;;;4228621;28;19961;-62
2022/08/14 10:25:42;;;;;;;;;;;28.20;90.40;;;;;;4229832;28;19949;-62
2022/08/14 10:27:48;;;;;;;;;;;28.00;89.80;;;;;;4228791;28;19957;-62
2022/08/14 10:29:53;;;;;;;;;;;28.00;90.20;;;;;;4229145;28;20317;-62
2022/08/14 10:31:58;;;;;;;;;;;28.10;90.70;;;;;;4228124;28;19907;-63
2022/08/14 10:34:12;;;;;;;;;;;28.10;90.90;;;;;;4228945;28;19904;-63
2022/08/14 10:36:24;;;;;;;;;;;28.10;89.90;;;;;;4227296;28;19976;-62
2022/08/14 10:38:26;;;;;;;;;;;28.10;90.40;;;;;;4229555;28;19944;-62
2022/08/14 10:40:29;;;;;;;;;;;28.00;91.40;;;;;;4228983;28;19961;-62
2022/08/14 10:42:39;;;;;;;;;;;28.00;91.50;;;;;;4228743;28;19972;-62
2022/08/14 10:44:44;;;;;;;;;;;27.80;91.00;;;;;;4227700;28;20343;-63
2022/08/14 10:47:03;;;;;;;;;;;27.80;91.00;;;;;;4229268;28;19908;-63
2022/08/14 10:49:06;;;;;;;;;;;27.70;90.60;;;;;;4228234;28;20051;-62
2022/08/14 10:51:07;;;;;;;;;;;27.60;90.80;;;;;;4228849;28;19976;-63
2022/08/14 10:53:08;;;;;;;;;;;27.60;91.30;;;;;;4228188;28;19907;-63
2022/08/14 10:55:12;;;;;;;;;;;27.60;91.40;;;;;;4228587;28;19952;-63
2022/08/14 10:57:14;;;;;;;;;;;27.70;90.90;;;;;;4228427;28;19957;-63
2022/08/14 10:59:15;;;;;;;;;;;27.70;90.50;;;;;;4228213;28;20313;-63
2022/08/14 11:01:16;;;;;;;;;;;27.80;90.60;;;;;;4228599;28;19904;-62
2022/08/14 11:03:17;;;;;;;;;;;27.80;90.40;;;;;;4227936;28;19919;-62
2022/08/14 11:05:18;;;;;;;;;;;27.80;90.90;;;;;;4228435;28;19945;-63
2022/08/14 11:07:19;;;;;;;;;;;28.00;90.70;;;;;;4227716;28;19907;-62
2022/08/14 11:09:20;;;;;;;;;;;28.10;90.60;;;;;;4229308;28;19911;-62
2022/08/14 11:11:24;;;;;;;;;;;28.30;90.30;;;;;;4227150;28;19911;-62
2022/08/14 11:13:29;;;;;;;;;;;28.60;90.30;;;;;;4228477;28;20321;-62
2022/08/14 11:15:30;;;;;;;;;;;28.80;90.10;;;;;;4227645;28;19912;-62
2022/08/14 11:17:31;;;;;;;;;;;29.10;89.10;;;;;;4228662;28;19904;-62
2022/08/14 11:19:32;;;;;;;;;;;29.20;89.60;;;;;;4225713;28;19908;-62
2022/08/14 11:21:34;;;;;;;;;;;29.40;89.40;;;;;;4228479;28;19911;-63
2022/08/14 11:23:37;;;;;;;;;;;29.20;87.40;;;;;;4227395;28;20475;-63
2022/08/14 11:25:43;;;;;;;;;;;29.20;86.30;;;;;;4227742;28;19907;-63
2022/08/14 11:27:44;;;;;;;;;;;29.10;86.40;;;;;;4227941;28;19907;-63
2022/08/14 11:29:48;;;;;;;;;;;28.90;86.90;;;;;;4228081;28;20351;-64
2022/08/14 11:31:49;;;;;;;;;;;28.90;85.90;;;;;;4227984;28;20287;-62
2022/08/14 11:33:54;;;;;;;;;;;28.80;85.40;;;;;;4227589;28;19908;-62
2022/08/14 11:35:56;;;;;;;;;;;28.80;85.60;;;;;;4227051;28;19907;-64
2022/08/14 11:37:58;;;;;;;;;;;28.90;84.60;;;;;;4227324;28;20317;-64
2022/08/14 11:40:00;;;;;;;;;;;29.00;84.30;;;;;;4228880;28;20301;-63
2022/08/14 11:42:02;;;;;;;;;;;29.10;84.40;;;;;;4227071;28;19907;-63
2022/08/14 11:44:03;;;;;;;;;;;29.40;84.50;;;;;;4228534;28;20487;-63
2022/08/14 11:46:04;;;;;;;;;;;29.40;86.10;;;;;;4227223;28;19904;-62
2022/08/14 11:48:19;;;;;;;;;;;29.40;86.30;;;;;;4228039;28;19915;-62
2022/08/14 11:50:22;;;;;;;;;;;29.30;85.90;;;;;;4225471;28;19945;-63
2022/08/14 11:52:32;;;;;;;;;;;29.20;86.20;;;;;;4228338;28;19961;-63
2022/08/14 11:54:34;;;;;;;;;;;29.50;86.60;;;;;;4225631;28;19904;-64
2022/08/14 11:56:36;;;;;;;;;;;29.60;86.10;;;;;;4227427;28;20369;-62
2022/08/14 11:58:37;;;;;;;;;;;29.50;83.10;;;;;;4227366;28;19961;-64
2022/08/14 12:00:49;;;;;;;;;;;29.40;83.10;;;;;;4228383;28;19908;-62
2022/08/14 12:02:54;;;;;;;;;;;29.10;83.10;;;;;;4227525;28;19953;-63
2022/08/14 12:04:55;;;;;;;;;;;29.10;83.70;;;;;;4228358;28;19912;-62
2022/08/14 12:06:56;;;;;;;;;;;29.30;84.30;;;;;;4227113;28;19904;-62
2022/08/14 12:08:57;;;;;;;;;;;29.30;83.20;;;;;;4228056;28;19954;-65